Time;durP1;ratioP1;P1;durP2;ratioP2;P2;SDS_P1;SDS_P2;PMS_P1;PMS_P2;Temp;Humidity;BMP_temperature;BMP_pressure;BME280_temperature;BME280_humidity;BME280_pressure;Samples;Min_cycle;Max_cycle;Signal;HPM_P1;HPM_P2
2022/05/27 00:01:29;;;;;;;16.65;4.20;;;;;;;11.52;100.00;101024.06;4972853;28;20178;-49
2022/05/27 00:03:58;;;;;;;15.43;4.60;;;;;;;11.60;100.00;101021.06;4972297;28;20221;-51
2022/05/27 00:06:25;;;;;;;16.85;4.38;;;;;;;11.54;100.00;101034.69;4972547;28;20188;-49
2022/05/27 00:08:51;;;;;;;18.70;4.10;;;;;;;11.59;100.00;101015.72;4972898;28;20178;-50
2022/05/27 00:11:17;;;;;;;17.75;4.43;;;;;;;11.54;100.00;101016.81;4972929;28;20196;-50
2022/05/27 00:13:43;;;;;;;17.08;5.05;;;;;;;11.55;100.00;101021.22;4971818;28;20637;-50
2022/05/27 00:16:10;;;;;;;15.82;4.70;;;;;;;11.55;100.00;101039.16;4972720;28;20206;-50
2022/05/27 00:18:35;;;;;;;22.20;4.53;;;;;;;11.66;100.00;101015.44;4971153;28;20272;-47
2022/05/27 00:21:02;;;;;;;18.85;5.03;;;;;;;11.64;100.00;101027.19;4972084;28;20670;-49
2022/05/27 00:23:28;;;;;;;17.83;4.38;;;;;;;11.69;100.00;101011.75;4970733;28;20202;-48
2022/05/27 00:25:53;;;;;;;18.77;5.00;;;;;;;11.70;100.00;101010.84;4972343;28;20574;-47
2022/05/27 00:28:19;;;;;;;17.67;4.32;;;;;;;11.67;100.00;101021.69;4972756;28;20211;-48
2022/05/27 00:30:44;;;;;;;17.92;4.60;;;;;;;11.68;100.00;101026.13;4972521;28;20252;-47
2022/05/27 00:33:10;;;;;;;15.02;4.30;;;;;;;11.67;100.00;101016.31;4971710;28;20205;-48
2022/05/27 00:35:36;;;;;;;17.63;4.90;;;;;;;11.65;100.00;101013.69;4972493;28;20170;-49
2022/05/27 00:38:01;;;;;;;21.10;4.90;;;;;;;11.64;100.00;101027.19;4972149;28;20186;-50
2022/05/27 00:40:35;;;;;;;16.38;4.65;;;;;;;11.67;100.00;101019.88;4972548;28;20237;-49
2022/05/27 00:43:01;;;;;;;18.02;4.82;;;;;;;11.53;100.00;101014.19;4971802;28;20579;-49
2022/05/27 00:45:27;;;;;;;17.38;4.15;;;;;;;11.50;100.00;101016.97;4972167;28;20285;-48
2022/05/27 00:47:55;;;;;;;21.70;4.68;;;;;;;11.51;100.00;101008.00;4971905;28;20252;-48
2022/05/27 00:50:28;;;;;;;19.77;4.82;;;;;;;11.50;100.00;101012.50;4972069;28;20190;-49
2022/05/27 00:52:55;;;;;;;17.48;4.55;;;;;;;11.42;100.00;101021.78;4972067;28;20284;-47
2022/05/27 00:55:25;;;;;;;11.50;3.53;;;;;;;11.34;100.00;101019.38;4971975;28;20185;-50
2022/05/27 00:58:16;;;;;;;15.43;4.20;;;;;;;11.43;100.00;101021.69;4971956;28;20549;-48
2022/05/27 01:00:41;;;;;;;19.17;4.50;;;;;;;11.41;100.00;101023.56;4972045;28;20181;-47
2022/05/27 01:03:11;;;;;;;12.70;3.83;;;;;;;11.37;100.00;101031.78;4970898;28;20664;-50
2022/05/27 01:05:39;;;;;;;17.05;3.25;;;;;;;11.26;100.00;101010.75;4971654;28;20209;-48
2022/05/27 01:08:08;;;;;;;17.83;3.50;;;;;;;11.32;100.00;101031.97;4971689;28;20221;-48
2022/05/27 01:10:47;;;;;;;14.15;3.05;;;;;;;11.28;100.00;101025.88;4971741;28;20178;-47
2022/05/27 01:13:30;;;;;;;17.48;3.42;;;;;;;11.33;100.00;101036.44;4971359;28;20213;-48
2022/05/27 01:16:15;;;;;;;16.40;3.25;;;;;;;11.28;100.00;101024.97;4965344;28;20676;-48
2022/05/27 01:21:55;;;;;;;15.15;3.17;;;;;;;11.20;100.00;101032.47;4971348;28;20645;-46
2022/05/27 01:24:49;;;;;;;18.38;3.28;;;;;;;11.14;100.00;101045.16;4961270;28;20569;-46
2022/05/27 01:27:33;;;;;;;12.70;3.38;;;;;;;11.04;100.00;101050.91;4951927;28;20702;-47
2022/05/27 01:30:22;;;;;;;14.07;3.42;;;;;;;11.01;100.00;101051.03;4957856;28;20558;-48
2022/05/27 01:33:02;;;;;;;12.10;3.35;;;;;;;10.95;100.00;101057.47;4969232;28;20256;-49
2022/05/27 01:35:37;;;;;;;16.52;4.03;;;;;;;10.92;100.00;101046.88;4971291;28;20178;-46
2022/05/27 01:38:10;;;;;;;17.73;3.55;;;;;;;10.95;100.00;101054.78;4970924;28;20174;-47
2022/05/27 01:41:08;;;;;;;12.38;3.20;;;;;;;11.03;100.00;101066.13;4970963;28;20213;-47
2022/05/27 01:43:59;;;;;;;15.27;2.92;;;;;;;11.01;100.00;101067.09;4964856;28;20229;-47
2022/05/27 01:46:39;;;;;;;19.77;3.25;;;;;;;10.97;100.00;101060.97;4970886;28;20217;-46
2022/05/27 01:49:26;;;;;;;13.88;3.28;;;;;;;10.93;100.00;101062.91;4969938;28;20604;-46
2022/05/27 01:51:58;;;;;;;15.38;3.03;;;;;;;10.94;100.00;101063.78;4971142;28;20209;-46
2022/05/27 01:54:37;;;;;;;17.17;3.15;;;;;;;10.83;100.00;101060.63;4970794;28;20248;-48
2022/05/27 01:57:12;;;;;;;20.27;3.35;;;;;;;10.86;100.00;101064.03;4972288;28;20196;-48
2022/05/27 02:00:05;;;;;;;12.63;2.38;;;;;;;10.77;100.00;101083.13;4975108;28;20178;-47
2022/05/27 02:02:34;;;;;;;11.07;2.45;;;;;;;10.71;100.00;101080.66;4975082;28;20194;-47
2022/05/27 02:05:06;;;;;;;18.67;3.08;;;;;;;10.61;100.00;101076.56;4974566;28;20289;-47
2022/05/27 02:07:45;;;;;;;14.23;3.20;;;;;;;10.63;100.00;101075.59;4974953;28;20252;-45
2022/05/27 02:10:20;;;;;;;13.13;2.67;;;;;;;10.52;100.00;101064.38;4974603;28;20178;-46
2022/05/27 02:13:17;;;;;;;11.98;2.90;;;;;;;10.57;100.00;101072.25;4975190;28;20204;-46
2022/05/27 02:15:46;;;;;;;10.27;2.42;;;;;;;10.61;100.00;101071.22;4973258;28;20200;-44
2022/05/27 02:18:33;;;;;;;15.60;3.05;;;;;;;10.65;100.00;101075.53;4974891;28;20264;-45
2022/05/27 02:21:24;;;;;;;16.50;3.58;;;;;;;10.62;100.00;101073.81;4973467;28;20264;-45
2022/05/27 02:24:02;;;;;;;12.18;2.50;;;;;;;10.59;100.00;101075.75;4973742;28;20214;-44
2022/05/27 02:26:32;;;;;;;15.40;2.80;;;;;;;10.39;100.00;101068.38;4974620;28;20317;-45
2022/05/27 02:29:11;;;;;;;13.65;3.28;;;;;;;10.45;100.00;101078.88;4974658;28;20559;-45
2022/05/27 02:31:41;;;;;;;15.98;3.20;;;;;;;10.37;100.00;101073.78;4974536;28;20190;-43
2022/05/27 02:37:07;;;;;;;14.20;3.05;;;;;;;10.31;100.00;101085.56;4974601;28;20221;-43
2022/05/27 02:39:34;;;;;;;15.32;3.10;;;;;;;10.31;100.00;101082.88;4974020;28;20316;-43
2022/05/27 02:42:17;;;;;;;14.20;3.05;;;;;;;10.33;100.00;101090.00;4989319;28;20210;-42
2022/05/27 02:45:04;;;;;;;14.57;2.47;;;;;;;10.20;100.00;101093.06;4973672;28;20206;-43
2022/05/27 02:48:08;;;;;;;14.50;2.67;;;;;;;10.20;100.00;101092.19;4974492;28;20190;-43
2022/05/27 02:50:46;;;;;;;14.15;2.47;;;;;;;10.20;100.00;101094.84;4967492;28;20669;-42
2022/05/27 02:53:32;;;;;;;16.52;2.80;;;;;;;10.10;100.00;101087.13;4988467;28;20697;-42
2022/05/27 02:56:17;;;;;;;11.52;2.70;;;;;;;10.05;100.00;101088.19;4962439;28;20288;-41
2022/05/27 02:58:42;;;;;;;11.48;2.60;;;;;;;9.99;100.00;101099.09;4973826;28;20341;-42
2022/05/27 03:01:08;;;;;;;16.20;2.80;;;;;;;10.09;100.00;101095.19;4973862;28;20186;-41
2022/05/27 03:03:34;;;;;;;10.57;2.58;;;;;;;10.00;100.00;101092.81;4972990;28;20927;-41
2022/05/27 03:06:15;;;;;;;9.25;2.47;;;;;;;9.97;100.00;101093.81;4972100;28;20217;-42
2022/05/27 03:08:46;;;;;;;16.98;2.83;;;;;;;9.95;100.00;101097.41;4972419;28;20186;-42
2022/05/27 03:11:24;;;;;;;15.55;2.75;;;;;;;9.80;100.00;101102.34;4973685;28;20177;-41
2022/05/27 03:14:17;;;;;;;16.77;3.42;;;;;;;9.78;100.00;101104.19;4972279;28;20209;-40
2022/05/27 03:17:17;;;;;;;18.27;3.22;;;;;;;9.83;100.00;101102.25;4959122;28;20288;-41
2022/05/27 03:20:01;;;;;;;15.60;2.85;;;;;;;9.79;100.00;101113.09;4956827;28;20265;-41
2022/05/27 03:22:41;;;;;;;11.63;2.65;;;;;;;9.82;99.95;101102.31;4954788;28;20290;-41
2022/05/27 03:25:21;;;;;;;16.92;3.38;;;;;;;9.86;99.77;101114.63;4962053;28;20228;-41
2022/05/27 03:28:04;;;;;;;15.82;2.83;;;;;;;9.79;99.19;101111.28;4953782;29;20183;-40
2022/05/27 03:30:33;;;;;;;19.08;3.28;;;;;;;9.89;98.71;101112.75;4964214;28;20182;-41
2022/05/27 03:33:03;;;;;;;16.25;2.78;;;;;;;9.75;99.11;101108.75;4972939;28;20260;-41
2022/05/27 03:35:42;;;;;;;17.08;2.90;;;;;;;9.67;98.99;101112.53;4973396;28;20213;-40
2022/05/27 03:38:14;;;;;;;11.05;2.80;;;;;;;9.78;99.14;101128.28;4973553;28;20577;-40
2022/05/27 03:40:45;;;;;;;15.68;3.17;;;;;;;9.70;99.13;101124.94;4973031;28;20262;-41
2022/05/27 03:43:11;;;;;;;13.57;2.63;;;;;;;9.73;99.14;101126.66;4972813;28;20210;-40
2022/05/27 03:45:55;;;;;;;12.52;2.63;;;;;;;9.76;98.90;101124.75;4972522;28;20205;-40
2022/05/27 03:48:23;;;;;;;16.83;2.88;;;;;;;9.78;98.55;101125.59;4972849;28;20230;-41
2022/05/27 03:50:52;;;;;;;18.10;2.97;;;;;;;9.83;98.21;101130.81;4972749;28;20185;-41
2022/05/27 03:53:18;;;;;;;16.83;3.58;;;;;;;9.69;98.22;101134.78;4972833;28;20206;-41
2022/05/27 03:55:46;;;;;;;15.43;3.80;;;;;;;9.62;98.58;101137.66;4973407;28;20325;-41
2022/05/27 03:58:13;;;;;;;16.58;2.80;;;;;;;9.68;98.79;101137.50;4973062;28;20182;-41
2022/05/27 04:00:39;;;;;;;15.02;2.67;;;;;;;9.68;98.65;101129.47;4972891;28;20245;-41
2022/05/27 04:03:05;;;;;;;15.90;3.03;;;;;;;9.61;98.67;101131.44;4972582;28;20198;-40
2022/05/27 04:05:30;;;;;;;15.23;2.72;;;;;;;9.64;99.05;101126.03;4972885;28;20253;-41
2022/05/27 04:07:56;;;;;;;15.90;2.70;;;;;;;9.63;98.99;101128.72;4972961;28;20547;-40
2022/05/27 04:10:22;;;;;;;13.40;3.15;;;;;;;9.72;99.05;101124.91;4972790;28;20186;-41
2022/05/27 04:12:47;;;;;;;17.27;2.95;;;;;;;9.71;99.16;101134.75;4972787;28;20194;-41
2022/05/27 04:15:13;;;;;;;17.25;3.30;;;;;;;9.70;99.36;101141.88;4971737;28;20217;-40
2022/05/27 04:17:40;;;;;;;16.17;2.78;;;;;;;9.72;99.53;101136.47;4972509;28;20805;-41
2022/05/27 04:20:10;;;;;;;16.25;3.63;;;;;;;9.78;99.14;101130.94;4972388;28;20229;-40
2022/05/27 04:22:36;;;;;;;14.68;3.10;;;;;;;9.79;99.17;101130.00;4972463;28;20210;-40
2022/05/27 04:25:02;;;;;;;19.02;3.38;;;;;;;9.80;99.11;101125.56;4972143;28;20208;-40
2022/05/27 04:27:28;;;;;;;22.30;3.67;;;;;;;9.81;99.24;101128.16;4972584;28;20182;-41
2022/05/27 04:29:55;;;;;;;19.08;3.33;;;;;;;9.82;99.20;101121.91;4972003;28;20194;-40
2022/05/27 04:32:25;;;;;;;15.10;3.42;;;;;;;9.81;98.89;101120.13;4972395;28;20210;-42
2022/05/27 04:34:54;;;;;;;11.43;3.03;;;;;;;9.87;98.92;101132.47;4971834;28;20244;-40
2022/05/27 04:37:22;;;;;;;23.33;3.38;;;;;;;9.84;98.89;101128.09;4972549;28;20189;-41
2022/05/27 04:39:47;;;;;;;21.67;4.22;;;;;;;9.87;98.73;101136.00;4972253;28;20174;-43
2022/05/27 04:42:13;;;;;;;13.63;2.97;;;;;;;9.95;98.47;101135.78;4972105;28;20206;-42
2022/05/27 04:44:39;;;;;;;19.83;3.40;;;;;;;10.08;98.13;101136.31;4971888;28;20312;-42
2022/05/27 04:47:07;;;;;;;13.75;3.47;;;;;;;10.08;97.69;101128.28;4972541;28;20174;-44
2022/05/27 04:49:53;;;;;;;19.23;3.60;;;;;;;10.20;97.00;101132.34;4972127;28;20178;-42
2022/05/27 04:52:21;;;;;;;13.15;2.92;;;;;;;10.19;96.32;101131.47;4971890;28;20693;-42
2022/05/27 04:54:47;;;;;;;16.80;4.07;;;;;;;10.29;95.95;101137.44;4971195;28;20181;-42
2022/05/27 04:57:16;;;;;;;21.90;3.85;;;;;;;10.33;95.58;101136.41;4971934;28;20190;-43
2022/05/27 04:59:41;;;;;;;20.60;3.65;;;;;;;10.46;95.29;101124.38;4971839;28;20193;-45
2022/05/27 05:02:07;;;;;;;21.65;4.38;;;;;;;10.59;94.42;101134.69;4971981;28;20206;-43
2022/05/27 05:04:32;;;;;;;18.65;4.13;;;;;;;10.53;93.96;101130.41;4971623;28;20224;-44
2022/05/27 05:07:04;;;;;;;16.40;3.10;;;;;;;10.66;93.65;101130.88;4970850;28;20599;-43
2022/05/27 05:09:30;;;;;;;13.05;3.67;;;;;;;10.69;92.86;101123.63;4971674;28;20189;-44
2022/05/27 05:11:56;;;;;;;20.40;3.63;;;;;;;10.80;92.30;101125.94;4970422;28;20502;-42
2022/05/27 05:14:21;;;;;;;20.80;3.72;;;;;;;10.80;91.67;101136.66;4971416;28;20178;-42
2022/05/27 05:16:47;;;;;;;20.75;3.67;;;;;;;10.84;90.94;101140.94;4971470;28;20530;-44
2022/05/27 05:19:12;;;;;;;18.05;3.20;;;;;;;10.85;91.08;101142.72;4971306;28;20166;-45
2022/05/27 05:21:37;;;;;;;17.73;3.85;;;;;;;10.88;90.61;101131.00;4971588;28;20249;-42
2022/05/27 05:24:03;;;;;;;23.98;3.92;;;;;;;10.86;90.83;101133.72;4970900;28;20190;-44
2022/05/27 05:26:29;;;;;;;18.00;3.72;;;;;;;10.96;90.68;101136.97;4971535;28;20182;-45
2022/05/27 05:28:54;;;;;;;19.08;3.53;;;;;;;11.11;90.82;101135.56;4970253;28;20289;-43
2022/05/27 05:31:20;;;;;;;18.52;3.25;;;;;;;11.09;89.85;101138.31;4970530;28;20193;-44
2022/05/27 05:33:45;;;;;;;15.32;3.55;;;;;;;11.03;89.58;101132.28;4970729;28;20194;-45
2022/05/27 05:36:11;;;;;;;16.70;3.05;;;;;;;11.20;89.05;101129.00;4970864;28;20178;-43
2022/05/27 05:38:36;;;;;;;16.35;3.50;;;;;;;11.25;89.14;101130.56;4971245;28;20557;-43
2022/05/27 05:41:02;;;;;;;12.75;3.00;;;;;;;11.31;89.19;101143.78;4971195;28;20317;-43
2022/05/27 05:43:27;;;;;;;12.85;3.17;;;;;;;11.06;88.70;101132.16;4970334;28;20209;-44
2022/05/27 05:45:53;;;;;;;18.45;3.20;;;;;;;11.21;88.96;101145.03;4971208;28;20210;-41
2022/05/27 05:48:18;;;;;;;17.90;3.28;;;;;;;11.27;88.57;101139.44;4971021;28;20170;-44
2022/05/27 05:50:43;;;;;;;17.75;3.45;;;;;;;11.38;87.51;101141.75;4970163;28;20205;-44
2022/05/27 05:53:09;;;;;;;15.48;3.40;;;;;;;11.48;87.07;101140.47;4970493;28;20285;-44
2022/05/27 05:55:35;;;;;;;19.45;4.13;;;;;;;11.63;86.39;101149.78;4971152;28;20564;-45
2022/05/27 05:58:03;;;;;;;16.70;3.38;;;;;;;11.66;85.92;101146.09;4971128;28;20608;-44
2022/05/27 06:00:29;;;;;;;16.17;3.22;;;;;;;11.72;85.74;101143.19;4952724;28;20275;-46
2022/05/27 06:02:54;;;;;;;19.80;3.40;;;;;;;11.71;85.99;101144.97;4951917;29;20572;-43
2022/05/27 06:05:21;;;;;;;12.18;2.78;;;;;;;11.87;86.16;101149.75;4951438;29;20593;-44
2022/05/27 06:07:48;;;;;;;16.58;4.00;;;;;;;11.82;85.25;101151.75;4951499;29;20218;-43
2022/05/27 06:10:15;;;;;;;19.08;3.15;;;;;;;11.86;85.60;101138.13;4951748;29;20209;-44
2022/05/27 06:12:41;;;;;;;15.55;2.97;;;;;;;12.19;84.48;101147.66;4950177;29;20206;-43
2022/05/27 06:15:10;;;;;;;16.35;3.15;;;;;;;12.36;83.54;101146.03;4951503;29;20189;-44
2022/05/27 06:17:36;;;;;;;20.10;3.67;;;;;;;12.39;81.97;101144.16;4950424;29;20238;-44
2022/05/27 06:20:03;;;;;;;16.48;3.03;;;;;;;12.57;82.55;101138.03;4950634;29;20241;-50
2022/05/27 06:22:28;;;;;;;13.15;3.70;;;;;;;12.77;81.89;101121.09;4951653;29;20203;-48
2022/05/27 06:24:54;;;;;;;14.07;3.15;;;;;;;12.95;82.59;101131.03;4950877;29;20307;-49
2022/05/27 06:27:19;;;;;;;17.63;3.60;;;;;;;12.34;81.82;101134.47;4951251;29;20780;-49
2022/05/27 06:35:13;;;;;;;13.43;2.88;;;;;;;12.98;78.78;101124.63;4970403;28;20232;-49
2022/05/27 06:37:39;;;;;;;13.70;3.22;;;;;;;12.77;79.79;101123.78;4970512;28;20331;-49
2022/05/27 06:40:05;;;;;;;22.23;3.97;;;;;;;12.31;79.86;101147.16;4970699;28;20178;-47
2022/05/27 06:42:31;;;;;;;16.27;3.80;;;;;;;12.16;78.99;101143.28;4969850;28;20202;-47
2022/05/27 06:44:57;;;;;;;17.25;3.88;;;;;;;12.99;78.78;101134.47;4972417;28;20208;-46
2022/05/27 06:47:22;;;;;;;14.10;3.85;;;;;;;12.55;78.43;101135.41;4974045;28;20178;-47
2022/05/27 06:49:48;;;;;;;17.08;3.28;;;;;;;12.89;78.82;101125.03;4972592;28;20545;-48
2022/05/27 06:52:15;;;;;;;19.30;3.75;;;;;;;12.77;76.36;101118.38;4972632;28;20201;-46
2022/05/27 06:54:42;;;;;;;17.63;3.90;;;;;;;12.95;76.96;101116.72;4956407;28;20664;-48
2022/05/27 06:57:08;;;;;;;15.52;3.55;;;;;;;13.40;75.31;101115.63;4973847;28;20223;-47
2022/05/27 06:59:34;;;;;;;10.23;2.80;;;;;;;13.56;73.47;101119.38;4974193;28;20182;-49
2022/05/27 07:02:00;;;;;;;13.07;3.50;;;;;;;13.41;72.84;101125.47;4973712;28;20689;-46
2022/05/27 07:04:26;;;;;;;14.93;3.28;;;;;;;13.00;74.38;101117.38;4988241;28;20222;-47
2022/05/27 07:06:51;;;;;;;14.95;3.45;;;;;;;12.62;75.85;101119.91;4973721;28;20804;-48
2022/05/27 07:09:20;;;;;;;10.52;2.95;;;;;;;12.38;76.46;101129.00;4973576;28;20780;-47
2022/05/27 07:11:48;;;;;;;11.85;2.67;;;;;;;12.08;75.53;101142.72;4973898;28;20182;-47
2022/05/27 07:14:14;;;;;;;10.68;2.35;;;;;;;12.43;74.87;101132.34;4973118;28;20178;-49
2022/05/27 07:16:40;;;;;;;7.88;2.35;;;;;;;13.17;73.36;101125.56;4988480;28;20253;-46
2022/05/27 07:19:07;;;;;;;9.73;2.83;;;;;;;12.98;72.21;101124.63;4973740;28;20178;-47
2022/05/27 07:21:43;;;;;;;12.60;2.47;;;;;;;13.01;71.81;101131.69;4973268;28;20217;-47
2022/05/27 07:24:13;;;;;;;12.40;2.58;;;;;;;13.31;70.77;101124.13;4970438;28;20197;-46
2022/05/27 07:26:39;;;;;;;10.55;2.92;;;;;;;13.15;71.28;101122.09;4964205;28;20265;-47
2022/05/27 07:29:06;;;;;;;14.32;3.45;;;;;;;13.79;70.04;101114.72;4953554;28;20906;-48
2022/05/27 07:31:32;;;;;;;17.33;3.15;;;;;;;13.96;68.91;101114.81;4972232;28;20224;-49
2022/05/27 07:33:58;;;;;;;15.68;3.63;;;;;;;14.26;67.98;101108.91;4972618;28;20695;-49
2022/05/27 07:36:24;;;;;;;12.50;3.00;;;;;;;14.55;67.75;101096.69;4973360;28;20178;-47
2022/05/27 07:38:51;;;;;;;14.20;3.05;;;;;;;14.20;67.77;101104.66;4972898;28;20268;-46
2022/05/27 07:41:18;;;;;;;11.20;2.78;;;;;;;14.40;66.49;101102.81;4973148;28;20178;-48
2022/05/27 07:43:44;;;;;;;14.88;3.30;;;;;;;14.68;66.20;101107.72;4962514;28;20229;-46
2022/05/27 07:46:11;;;;;;;14.38;2.80;;;;;;;14.49;63.75;101105.03;4953543;29;20202;-47
2022/05/27 07:48:37;;;;;;;17.08;3.30;;;;;;;14.60;63.04;101096.44;4954120;29;20183;-45
2022/05/27 07:51:02;;;;;;;16.30;2.95;;;;;;;15.07;65.10;101100.34;4953005;29;20250;-47
2022/05/27 07:53:28;;;;;;;15.75;3.70;;;;;;;15.04;64.60;101109.44;4952742;28;20205;-46
2022/05/27 07:55:53;;;;;;;13.90;3.47;;;;;;;14.87;63.33;101096.88;4953007;28;20770;-47
2022/05/27 07:58:18;;;;;;;15.63;2.92;;;;;;;14.80;62.05;101092.72;4953300;29;20182;-48
2022/05/27 08:00:44;;;;;;;10.52;3.28;;;;;;;14.83;61.56;101084.50;4953664;28;20188;-46
2022/05/27 08:03:10;;;;;;;13.18;3.05;;;;;;;14.33;63.08;101104.94;4955972;28;20684;-47
2022/05/27 08:05:36;;;;;;;11.48;2.53;;;;;;;13.36;67.37;101139.13;4963744;28;20309;-48
2022/05/27 08:08:02;;;;;;;8.48;2.20;;;;;;;12.12;75.61;101163.16;4970949;28;20189;-51
2022/05/27 08:10:31;;;;;;;12.98;2.50;;;;;;;11.28;81.64;101153.72;4972548;28;20201;-51
2022/05/27 08:12:57;;;;;;;11.35;3.00;;;;;;;10.85;83.79;101144.53;4972247;28;20197;-48
2022/05/27 08:15:23;;;;;;;15.88;2.95;;;;;;;10.96;85.08;101150.38;4964126;28;20226;-49
2022/05/27 08:17:49;;;;;;;10.95;2.80;;;;;;;10.90;84.78;101146.09;4954308;28;20183;-49
2022/05/27 08:20:18;;;;;;;11.48;2.47;;;;;;;11.89;85.01;101145.22;4953540;29;20194;-50
2022/05/27 08:22:45;;;;;;;11.98;3.40;;;;;;;12.64;83.73;101125.19;4969103;28;20213;-50
2022/05/27 08:25:11;;;;;;;18.48;3.65;;;;;;;12.91;82.04;101120.47;4971743;28;20745;-48
2022/05/27 08:27:37;;;;;;;10.88;2.72;;;;;;;13.35;81.66;101118.53;4971025;28;20524;-49
2022/05/27 08:30:04;;;;;;;17.48;3.00;;;;;;;13.42;80.34;101108.34;4971944;28;20193;-50
2022/05/27 08:32:31;;;;;;;13.15;3.40;;;;;;;13.49;79.04;101111.63;4972213;28;20214;-46
2022/05/27 08:40:41;;;;;;;13.20;3.55;;;;;;;14.04;75.35;101094.69;4971216;28;20200;-46
2022/05/27 08:43:38;;;;;;;18.20;3.78;;;;;;;14.39;70.62;101096.56;4952054;29;20225;-47
2022/05/27 08:46:41;;;;;;;14.20;3.75;;;;;;;14.67;66.65;101089.81;4952494;28;20550;-46
2022/05/27 08:49:14;;;;;;;10.27;2.88;;;;;;;14.76;64.65;101113.59;4952701;29;20186;-48
2022/05/27 08:51:50;;;;;;;12.43;2.83;;;;;;;14.65;62.68;101104.28;4952048;29;20266;-48
2022/05/27 08:54:30;;;;;;;6.88;1.95;;;;;;;14.26;62.89;101110.72;4962717;28;20197;-47
2022/05/27 08:59:54;;;;;;;7.82;2.35;;;;;;;14.83;62.67;101112.31;4971138;28;20641;-47
2022/05/27 09:02:35;;;;;;;6.82;1.92;;;;;;;14.49;62.18;101099.66;4969867;28;20218;-45
2022/05/27 09:05:14;;;;;;;8.35;2.15;;;;;;;14.79;63.01;101096.38;4964853;28;20678;-49
2022/05/27 09:08:02;;;;;;;10.48;3.03;;;;;;;15.63;62.55;101091.88;4970563;28;20568;-47
2022/05/27 09:10:46;;;;;;;12.23;2.20;;;;;;;15.22;61.50;101097.69;4971713;28;20657;-48
2022/05/27 09:13:20;;;;;;;9.77;2.08;;;;;;;14.56;64.41;101106.53;4970773;28;20189;-49
2022/05/27 09:15:59;;;;;;;9.25;1.92;;;;;;;14.89;64.27;101108.44;4971058;28;20576;-49
2022/05/27 09:18:32;;;;;;;11.02;2.33;;;;;;;14.98;63.23;101091.78;4971415;28;20272;-48
2022/05/27 09:21:28;;;;;;;10.75;1.98;;;;;;;15.17;63.16;101102.44;4971619;28;20269;-48
2022/05/27 09:24:18;;;;;;;7.10;1.67;;;;;;;14.62;63.07;101102.63;4970546;28;20193;-46
2022/05/27 09:26:54;;;;;;;7.80;1.75;;;;;;;15.41;63.95;101104.81;4971519;28;20185;-47
2022/05/27 09:29:19;;;;;;;5.22;2.13;;;;;;;15.44;62.82;101096.56;4971408;28;20170;-48
2022/05/27 09:32:07;;;;;;;8.52;2.35;;;;;;;15.62;62.84;101092.84;4970831;28;20205;-49
2022/05/27 09:34:37;;;;;;;6.75;1.85;;;;;;;15.20;63.32;101106.84;4966495;28;20174;-50
2022/05/27 09:37:07;;;;;;;8.75;2.45;;;;;;;14.25;64.78;101131.38;4952081;28;20279;-49
2022/05/27 09:39:33;;;;;;;12.70;2.63;;;;;;;12.55;72.39;101204.41;4950554;29;20181;-51
2022/05/27 09:42:19;;;;;;;6.30;1.60;;;;;;;11.02;78.28;101197.53;4951916;29;20191;-48
2022/05/27 09:44:55;;;;;;;6.35;1.63;;;;;;;10.89;81.90;101173.84;4951536;29;20214;-50
2022/05/27 09:47:31;;;;;;;8.80;1.95;;;;;;;10.86;83.27;101171.25;4952077;29;20273;-49
2022/05/27 09:50:46;;;;;;;7.32;1.92;;;;;;;10.79;86.76;101171.53;4952177;29;20174;-48
2022/05/27 09:53:19;;;;;;;7.47;1.67;;;;;;;10.56;86.37;101177.63;4949864;28;20654;-50
2022/05/27 09:56:04;;;;;;;8.55;2.47;;;;;;;10.99;85.71;101173.53;4952333;29;20174;-48
2022/05/27 09:58:36;;;;;;;12.30;2.70;;;;;;;11.67;86.64;101167.47;4952089;29;20217;-47
2022/05/27 10:01:18;;;;;;;16.98;3.45;;;;;;;11.78;87.11;101174.28;4950498;29;20171;-48
2022/05/27 10:03:43;;;;;;;15.43;3.38;;;;;;;11.06;86.75;101194.75;4950644;29;20217;-50
2022/05/27 10:06:17;;;;;;;11.07;3.25;;;;;;;11.28;88.12;101167.13;4951480;29;20567;-48
2022/05/27 10:08:53;;;;;;;13.23;2.55;;;;;;;11.08;89.68;101181.25;4950683;29;20175;-48
2022/05/27 10:11:21;;;;;;;18.88;3.30;;;;;;;10.93;91.45;101191.59;4950040;29;20642;-49
2022/05/27 10:13:49;;;;;;;9.32;2.50;;;;;;;10.82;92.13;101179.47;4951680;29;20238;-48
2022/05/27 10:16:25;;;;;;;12.02;2.65;;;;;;;10.58;91.12;101163.25;4951805;29;20171;-48
2022/05/27 10:19:06;;;;;;;11.38;2.65;;;;;;;10.29;91.71;101143.66;4954120;28;20212;-50
2022/05/27 10:21:46;;;;;;;11.23;2.88;;;;;;;10.75;92.39;101137.72;4955598;29;20155;-49
2022/05/27 10:24:36;;;;;;;13.05;2.70;;;;;;;11.88;91.28;101136.31;4955379;29;20183;-48
2022/05/27 10:27:16;;;;;;;15.90;3.22;;;;;;;12.46;89.46;101132.22;4946096;29;20896;-49
2022/05/27 10:29:52;;;;;;;12.13;3.15;;;;;;;12.62;87.45;101133.34;4958830;28;20531;-50
2022/05/27 10:32:31;;;;;;;14.40;3.17;;;;;;;12.88;87.09;101116.09;4974658;28;20329;-52
2022/05/27 10:34:58;;;;;;;15.77;2.63;;;;;;;13.25;86.22;101125.25;4974236;28;20661;-47
2022/05/27 10:37:44;;;;;;;15.18;3.63;;;;;;;13.53;85.15;101118.63;4973286;28;20190;-48
2022/05/27 10:40:20;;;;;;;18.38;3.88;;;;;;;13.86;83.22;101129.66;4974318;28;20166;-48
2022/05/27 10:42:59;;;;;;;15.43;3.03;;;;;;;14.09;82.80;101115.09;4974449;28;20213;-47
2022/05/27 10:45:37;;;;;;;11.88;3.22;;;;;;;13.64;81.60;101116.31;4974201;28;20198;-52
2022/05/27 10:48:11;;;;;;;15.77;3.97;;;;;;;13.05;79.28;101125.25;4974649;28;20220;-48
2022/05/27 10:50:46;;;;;;;11.35;2.78;;;;;;;12.55;79.88;101146.16;4974291;28;20701;-47
2022/05/27 10:53:26;;;;;;;11.15;2.20;;;;;;;12.43;79.53;101145.78;4971180;28;20240;-50
2022/05/27 10:56:07;;;;;;;7.20;1.50;;;;;;;12.70;77.07;101141.97;4967556;28;20541;-46
2022/05/27 11:02:08;;;;;;;6.45;1.85;;;;;;;13.55;73.34;101124.81;4954993;29;20622;-48
2022/05/27 11:04:56;;;;;;;9.70;2.88;;;;;;;13.58;73.04;101101.34;4954178;29;20348;-49
2022/05/27 11:07:38;;;;;;;12.65;2.95;;;;;;;13.85;73.06;101100.13;4953520;29;20661;-48
2022/05/27 11:10:57;;;;;;;12.23;2.83;;;;;;;14.10;73.86;101113.28;4954460;29;20193;-49
2022/05/27 11:16:40;;;;;;;12.65;2.85;;;;;;;13.67;74.49;101115.31;4954409;29;20175;-49
2022/05/27 11:19:50;;;;;;;12.88;2.70;;;;;;;13.73;78.52;101115.91;4954396;29;20265;-48
2022/05/27 11:22:41;;;;;;;17.40;3.30;;;;;;;13.49;79.00;101107.16;4954298;29;20253;-47
2022/05/27 11:25:15;;;;;;;16.70;3.10;;;;;;;14.08;78.48;101091.81;4953849;29;20194;-46
2022/05/27 11:27:52;;;;;;;19.35;3.50;;;;;;;13.65;78.00;101093.84;4953814;29;20198;-50
2022/05/27 11:30:27;;;;;;;15.57;3.33;;;;;;;13.36;77.68;101097.91;4960013;28;20197;-48
2022/05/27 11:33:06;;;;;;;13.77;2.80;;;;;;;13.65;74.57;101104.63;4973013;28;20201;-48
2022/05/27 11:35:32;;;;;;;12.20;2.30;;;;;;;13.96;71.48;101090.56;4973403;28;20260;-46
2022/05/27 11:38:31;;;;;;;13.30;2.50;;;;;;;14.15;68.64;101098.63;4972898;28;20213;-48
2022/05/27 11:41:18;;;;;;;10.57;3.03;;;;;;;14.15;69.76;101100.47;4973220;28;20162;-52
2022/05/27 11:43:51;;;;;;;11.75;2.80;;;;;;;14.35;68.12;101083.31;4972640;28;20290;-47
2022/05/27 11:46:35;;;;;;;12.40;2.63;;;;;;;14.01;67.49;101099.31;4972984;28;20208;-48
2022/05/27 11:49:15;;;;;;;9.90;2.55;;;;;;;13.46;68.67;101111.78;4972976;28;20261;-49
2022/05/27 11:51:54;;;;;;;18.90;4.07;;;;;;;12.55;74.66;101221.44;4971727;28;20158;-48
2022/05/27 11:54:28;;;;;;;26.30;5.05;;;;;;;8.19;86.06;101217.00;4971147;28;20186;-52
2022/05/27 11:57:22;;;;;;;14.68;2.40;;;;;;;8.20;93.60;101200.09;4972573;28;20180;-49
2022/05/27 11:59:57;;;;;;;12.60;2.25;;;;;;;8.50;96.28;101207.44;4973193;28;20181;-47
2022/05/27 12:02:33;;;;;;;11.00;1.90;;;;;;;8.98;97.88;101186.66;4972493;28;20198;-48
2022/05/27 12:05:10;;;;;;;9.45;2.15;;;;;;;9.45;98.32;101179.16;4972663;28;20563;-49
2022/05/27 12:07:42;;;;;;;9.05;1.80;;;;;;;9.91;99.18;101171.59;4972662;28;20569;-49
2022/05/27 12:10:46;;;;;;;11.07;2.38;;;;;;;10.87;99.67;101158.75;4968165;28;20219;-48